createdAt,value
2023-03-26T00:01:52.683Z,8.00
2023-03-26T00:04:21.700Z,8.00
2023-03-26T00:06:50.832Z,7.90
2023-03-26T00:09:19.192Z,7.90
2023-03-26T00:11:47.291Z,7.90
2023-03-26T00:14:17.879Z,7.90
2023-03-26T00:16:47.469Z,7.90
2023-03-26T00:19:15.625Z,7.90
2023-03-26T00:21:43.427Z,8.00
2023-03-26T00:24:16.147Z,8.00
2023-03-26T00:26:44.759Z,7.90
2023-03-26T00:29:13.859Z,7.90
2023-03-26T00:31:46.331Z,7.90
2023-03-26T00:34:15.553Z,8.00
2023-03-26T00:36:43.919Z,8.10
2023-03-26T00:39:14.108Z,8.00
2023-03-26T00:41:43.254Z,8.00
2023-03-26T00:44:12.257Z,8.00
2023-03-26T00:46:40.472Z,8.00
2023-03-26T00:49:10.709Z,7.90
2023-03-26T00:51:39.158Z,7.80
2023-03-26T00:54:08.258Z,7.80
2023-03-26T00:56:38.673Z,7.70
2023-03-26T00:59:06.618Z,7.70
2023-03-26T01:01:34.490Z,7.70
2023-03-26T01:04:24.187Z,7.60
2023-03-26T01:06:52.274Z,7.60
2023-03-26T01:09:21.882Z,7.60
2023-03-26T01:11:51.383Z,7.60
2023-03-26T01:14:21.212Z,7.70
2023-03-26T01:16:52.866Z,7.70
2023-03-26T01:19:29.683Z,7.70
2023-03-26T01:21:58.858Z,7.80
2023-03-26T01:24:28.146Z,7.80
2023-03-26T01:27:09.593Z,7.80
2023-03-26T01:29:43.560Z,7.80
2023-03-26T01:32:23.537Z,7.90
2023-03-26T01:35:02.852Z,7.90
2023-03-26T01:37:38.794Z,7.90
2023-03-26T01:40:18.539Z,7.80
2023-03-26T01:42:53.052Z,7.80
2023-03-26T01:45:24.873Z,7.80
2023-03-26T01:47:54.494Z,7.70
2023-03-26T01:50:22.365Z,7.70
2023-03-26T01:52:50.209Z,7.60
2023-03-26T01:55:19.888Z,7.50
2023-03-26T01:57:57.998Z,7.50
2023-03-26T02:00:31.002Z,7.50
2023-03-26T02:03:09.894Z,7.50
2023-03-26T02:05:43.891Z,7.50
2023-03-26T02:08:20.955Z,7.50
2023-03-26T02:10:54.822Z,7.50
2023-03-26T02:13:23.423Z,7.60
2023-03-26T02:16:00.322Z,7.70
2023-03-26T02:18:36.223Z,7.70
2023-03-26T02:21:06.297Z,7.80
2023-03-26T02:23:35.795Z,7.80
2023-03-26T02:26:07.486Z,7.90
2023-03-26T02:28:38.889Z,8.00
2023-03-26T02:31:10.971Z,8.00
2023-03-26T02:33:39.487Z,8.00
2023-03-26T02:36:08.685Z,8.10
2023-03-26T02:38:37.004Z,8.10
2023-03-26T02:41:07.435Z,8.10
2023-03-26T02:43:52.397Z,8.10
2023-03-26T02:46:23.429Z,8.10
2023-03-26T02:49:11.482Z,8.10
2023-03-26T02:51:39.967Z,8.10
2023-03-26T02:54:20.409Z,8.20
2023-03-26T02:56:56.120Z,8.20
2023-03-26T02:59:46.322Z,8.20
2023-03-26T03:02:40.291Z,8.20
2023-03-26T03:05:27.102Z,8.20
2023-03-26T03:08:08.085Z,8.20
2023-03-26T03:10:39.505Z,8.10
2023-03-26T03:13:13.648Z,8.10
2023-03-26T03:15:41.533Z,8.10
2023-03-26T03:18:09.346Z,8.10
2023-03-26T03:20:37.725Z,8.10
2023-03-26T03:23:05.606Z,8.00
2023-03-26T03:25:33.783Z,8.00
2023-03-26T03:28:02.094Z,8.10
2023-03-26T03:30:31.386Z,8.10
2023-03-26T03:33:13.566Z,8.10
2023-03-26T03:35:42.627Z,8.10
2023-03-26T03:38:11.640Z,8.20
2023-03-26T03:40:47.978Z,8.20
2023-03-26T03:43:16.377Z,8.20
2023-03-26T03:46:04.074Z,8.20
2023-03-26T03:48:38.289Z,8.20
2023-03-26T03:51:07.799Z,8.20
2023-03-26T03:53:56.614Z,8.20
2023-03-26T03:56:36.067Z,8.20
2023-03-26T03:59:22.811Z,8.20
2023-03-26T04:01:51.986Z,8.30
2023-03-26T04:04:34.337Z,8.20
2023-03-26T04:07:05.383Z,8.20
2023-03-26T04:09:48.059Z,8.30
2023-03-26T04:12:20.673Z,8.30
2023-03-26T04:15:01.585Z,8.30
2023-03-26T04:17:31.350Z,8.30
2023-03-26T04:20:07.142Z,8.40
2023-03-26T04:22:36.565Z,8.40
2023-03-26T04:25:08.182Z,8.30
2023-03-26T04:27:47.811Z,8.30
2023-03-26T04:30:38.248Z,8.20
2023-03-26T04:33:22.030Z,8.20
2023-03-26T04:35:49.911Z,8.30
2023-03-26T04:38:18.916Z,8.30
2023-03-26T04:40:50.112Z,8.30
2023-03-26T04:43:36.358Z,8.30
2023-03-26T04:46:22.268Z,8.30
2023-03-26T04:49:01.109Z,8.30
2023-03-26T04:51:38.311Z,8.40
2023-03-26T04:54:15.109Z,8.40
2023-03-26T04:56:58.698Z,8.40
2023-03-26T04:59:52.632Z,8.50
2023-03-26T05:02:20.451Z,8.50
2023-03-26T05:04:57.117Z,8.50
2023-03-26T05:07:28.220Z,8.50
2023-03-26T05:09:58.218Z,8.60
2023-03-26T05:12:38.138Z,8.60
2023-03-26T05:15:11.899Z,8.60
2023-03-26T05:17:58.134Z,8.60
2023-03-26T05:20:41.500Z,8.60
2023-03-26T05:23:11.088Z,8.60
2023-03-26T05:25:42.481Z,8.60
2023-03-26T05:28:19.214Z,8.60
2023-03-26T05:30:55.930Z,8.70
2023-03-26T05:33:25.878Z,8.70
2023-03-26T05:36:03.691Z,8.70
2023-03-26T05:38:33.487Z,8.70
2023-03-26T05:41:05.059Z,8.70
2023-03-26T05:43:34.754Z,8.70
2023-03-26T05:46:09.248Z,8.80
2023-03-26T05:48:38.084Z,8.80
2023-03-26T05:51:08.851Z,8.80
2023-03-26T05:53:40.445Z,8.90
2023-03-26T05:56:14.409Z,8.90
2023-03-26T05:59:05.160Z,9.00
2023-03-26T06:01:54.458Z,9.00
2023-03-26T06:04:45.819Z,9.10
2023-03-26T06:07:39.121Z,9.10
2023-03-26T06:10:19.050Z,9.10
2023-03-26T06:12:47.483Z,9.10
2023-03-26T06:15:15.672Z,9.00
2023-03-26T06:17:48.337Z,9.00
2023-03-26T06:20:37.545Z,9.10
2023-03-26T06:23:13.189Z,9.20
2023-03-26T06:25:54.788Z,9.20
2023-03-26T06:28:42.595Z,9.40
2023-03-26T06:31:35.516Z,9.50
2023-03-26T06:34:17.573Z,9.60
2023-03-26T06:36:45.651Z,9.70
2023-03-26T06:39:14.821Z,9.70
2023-03-26T06:41:51.959Z,9.80
2023-03-26T06:44:40.305Z,9.80
2023-03-26T06:47:37.118Z,9.80
2023-03-26T06:50:23.411Z,9.90
2023-03-26T06:53:12.202Z,9.90
2023-03-26T06:55:55.551Z,10.00
2023-03-26T06:58:37.189Z,10.00
2023-03-26T07:01:44.144Z,10.00
2023-03-26T07:04:31.813Z,10.00
2023-03-26T07:07:20.351Z,10.00
2023-03-26T07:10:08.032Z,10.00
2023-03-26T07:12:52.065Z,10.00
2023-03-26T07:15:37.935Z,10.10
2023-03-26T07:18:29.195Z,10.20
2023-03-26T07:20:57.919Z,10.40
2023-03-26T07:23:31.285Z,10.60
2023-03-26T07:26:31.640Z,10.80
2023-03-26T07:29:23.312Z,11.00
2023-03-26T07:32:19.013Z,11.10
2023-03-26T07:35:16.330Z,11.20
2023-03-26T07:38:32.907Z,11.20
2023-03-26T07:41:20.408Z,11.30
2023-03-26T07:44:27.528Z,11.40
2023-03-26T07:47:26.078Z,11.50
2023-03-26T07:50:18.282Z,11.60
2023-03-26T07:53:07.662Z,11.60
2023-03-26T07:56:05.647Z,11.60
2023-03-26T07:58:59.381Z,11.50
2023-03-26T08:02:01.392Z,11.50
2023-03-26T08:05:05.789Z,11.60
2023-03-26T08:08:02.780Z,11.80
2023-03-26T08:10:41.160Z,12.20
2023-03-26T08:13:20.355Z,12.40
2023-03-26T08:15:55.248Z,12.60
2023-03-26T08:18:33.458Z,12.70
2023-03-26T08:21:08.084Z,12.90
2023-03-26T08:23:50.772Z,12.90
2023-03-26T08:26:30.961Z,12.90
2023-03-26T08:29:07.408Z,12.80
2023-03-26T08:31:38.955Z,12.80
2023-03-26T08:34:11.993Z,12.70
2023-03-26T08:36:40.439Z,12.80
2023-03-26T08:39:09.012Z,12.70
2023-03-26T08:42:05.605Z,12.70
2023-03-26T08:45:19.302Z,12.70
2023-03-26T08:48:24.055Z,12.70
2023-03-26T08:51:27.876Z,12.80
2023-03-26T08:54:25.933Z,12.90
2023-03-26T08:57:04.794Z,13.00
2023-03-26T08:59:56.677Z,13.00
2023-03-26T09:02:47.086Z,12.90
2023-03-26T09:05:30.513Z,12.90
2023-03-26T09:08:54.469Z,13.00
2023-03-26T09:11:50.555Z,13.10
2023-03-26T09:14:58.013Z,13.10
2023-03-26T09:18:07.093Z,13.20
2023-03-26T09:20:56.091Z,13.40
2023-03-26T09:23:54.290Z,13.40
2023-03-26T09:26:28.902Z,13.50
2023-03-26T09:29:36.074Z,13.60
2023-03-26T09:32:21.627Z,13.70
2023-03-26T09:35:13.560Z,13.70
2023-03-26T09:37:58.535Z,13.70
2023-03-26T09:40:37.782Z,13.70
2023-03-26T09:43:40.864Z,13.80
2023-03-26T09:46:22.949Z,13.70
2023-03-26T09:49:22.825Z,13.70
2023-03-26T09:52:12.232Z,13.70
2023-03-26T09:55:00.320Z,13.70
2023-03-26T09:57:49.344Z,13.90
2023-03-26T10:00:28.038Z,14.00
2023-03-26T10:03:19.714Z,14.10
2023-03-26T10:06:17.160Z,14.20
2023-03-26T10:09:03.523Z,14.50
2023-03-26T10:11:40.440Z,14.60
2023-03-26T10:14:18.880Z,14.60
2023-03-26T10:16:59.912Z,14.60
2023-03-26T10:19:47.210Z,14.60
2023-03-26T10:22:39.312Z,14.70
2023-03-26T10:25:23.302Z,14.80
2023-03-26T10:28:00.016Z,14.70
2023-03-26T10:31:06.210Z,14.80
2023-03-26T10:33:42.886Z,14.70
2023-03-26T10:36:29.918Z,14.60
2023-03-26T10:39:36.402Z,14.70
2023-03-26T10:42:16.738Z,14.70
2023-03-26T10:45:10.880Z,14.70
2023-03-26T10:48:04.099Z,14.70
2023-03-26T10:51:07.710Z,14.70
2023-03-26T10:53:40.777Z,14.70
2023-03-26T10:56:16.898Z,14.60
2023-03-26T10:58:48.255Z,14.60
2023-03-26T11:01:27.478Z,14.60
2023-03-26T11:04:02.203Z,14.60
2023-03-26T11:06:41.703Z,14.50
2023-03-26T11:09:23.690Z,14.30
2023-03-26T11:11:56.780Z,14.10
2023-03-26T11:14:34.927Z,13.80
2023-03-26T11:17:40.708Z,13.60
2023-03-26T11:20:10.839Z,13.30
2023-03-26T11:22:51.236Z,13.10
2023-03-26T11:25:44.779Z,13.00
2023-03-26T11:28:27.478Z,13.00
2023-03-26T11:31:00.038Z,12.90
2023-03-26T11:33:32.965Z,12.90
2023-03-26T11:36:04.882Z,12.70
2023-03-26T11:38:38.377Z,12.60
2023-03-26T11:41:12.158Z,12.50
2023-03-26T11:43:56.420Z,12.40
2023-03-26T11:46:27.354Z,12.40
2023-03-26T11:48:59.393Z,12.40
2023-03-26T11:51:32.844Z,12.40
2023-03-26T11:54:03.097Z,12.40
2023-03-26T11:56:34.172Z,12.30
2023-03-26T11:59:05.588Z,12.20
2023-03-26T12:01:45.326Z,12.10
2023-03-26T12:04:15.763Z,12.00
2023-03-26T12:06:53.461Z,12.00
2023-03-26T12:09:22.763Z,12.00
2023-03-26T12:11:55.664Z,12.00
2023-03-26T12:14:27.111Z,12.00
2023-03-26T12:16:59.986Z,12.00
2023-03-26T12:19:28.949Z,12.00
2023-03-26T12:21:57.037Z,12.00
2023-03-26T12:24:31.802Z,11.90
2023-03-26T12:27:02.082Z,11.90
2023-03-26T12:29:34.381Z,11.90
2023-03-26T12:32:08.226Z,11.90
2023-03-26T12:34:38.211Z,11.90
2023-03-26T12:37:08.281Z,11.90
2023-03-26T12:40:08.660Z,11.80
2023-03-26T12:44:46.733Z,11.80
2023-03-26T12:45:23.826Z,11.80
2023-03-26T12:48:02.259Z,11.80
2023-03-26T12:50:45.536Z,11.70
2023-03-26T12:53:27.234Z,11.70
2023-03-26T12:56:10.150Z,11.60
2023-03-26T12:58:55.042Z,11.60
2023-03-26T13:01:37.532Z,11.60
2023-03-26T13:04:40.092Z,11.50
2023-03-26T13:07:18.050Z,11.40
2023-03-26T13:10:22.740Z,11.40
2023-03-26T13:12:58.446Z,11.40
2023-03-26T13:15:28.865Z,11.30
2023-03-26T13:18:08.599Z,11.20
2023-03-26T13:20:50.405Z,11.10
2023-03-26T13:23:28.297Z,11.00
2023-03-26T13:26:06.120Z,11.00
2023-03-26T13:28:46.187Z,10.90
2023-03-26T13:31:23.042Z,10.80
2023-03-26T13:33:58.582Z,10.70
2023-03-26T13:36:40.167Z,10.60
2023-03-26T13:39:19.242Z,10.50
2023-03-26T13:42:11.604Z,10.50
2023-03-26T13:44:53.765Z,10.50
2023-03-26T13:47:37.102Z,10.40
2023-03-26T13:50:09.909Z,10.40
2023-03-26T13:52:45.399Z,10.40
2023-03-26T13:55:23.129Z,10.50
2023-03-26T13:57:58.678Z,10.50
2023-03-26T14:00:32.675Z,10.50
2023-03-26T14:03:04.913Z,10.50
2023-03-26T14:05:38.015Z,10.50
2023-03-26T14:08:13.650Z,10.50
2023-03-26T14:10:46.596Z,10.40
2023-03-26T14:13:19.754Z,10.50
2023-03-26T14:15:51.937Z,10.50
2023-03-26T14:18:36.633Z,10.50
2023-03-26T14:21:23.238Z,10.50
2023-03-26T14:24:17.180Z,10.40
2023-03-26T14:27:02.550Z,10.40
2023-03-26T14:29:38.867Z,10.40
2023-03-26T14:32:24.152Z,10.40
2023-03-26T14:35:02.826Z,10.40
2023-03-26T14:37:44.401Z,10.40
2023-03-26T14:40:28.817Z,10.40
2023-03-26T14:43:05.620Z,10.40
2023-03-26T14:46:00.257Z,10.50
2023-03-26T14:48:51.367Z,10.40
2023-03-26T14:51:30.928Z,10.40
2023-03-26T14:54:03.589Z,10.40
2023-03-26T14:56:48.561Z,10.40
2023-03-26T14:59:56.703Z,10.40
2023-03-26T15:03:08.685Z,10.40
2023-03-26T15:06:05.843Z,10.40
2023-03-26T15:09:10.013Z,10.40
2023-03-26T15:11:46.766Z,10.40
2023-03-26T15:14:41.753Z,10.40
2023-03-26T15:17:38.184Z,10.40
2023-03-26T15:20:35.540Z,10.40
2023-03-26T15:23:29.313Z,10.40
2023-03-26T15:26:50.995Z,10.40
2023-03-26T15:29:50.175Z,10.40
2023-03-26T15:32:52.664Z,10.40
2023-03-26T15:35:42.594Z,10.40
2023-03-26T15:38:43.249Z,10.30
2023-03-26T15:41:18.420Z,10.30
2023-03-26T15:44:23.431Z,10.30
2023-03-26T15:47:02.189Z,10.30
2023-03-26T15:49:39.703Z,10.30
2023-03-26T15:52:20.578Z,10.20
2023-03-26T15:54:54.912Z,10.20
2023-03-26T15:57:31.533Z,10.20
2023-03-26T16:00:22.834Z,10.20
2023-03-26T16:03:09.088Z,10.20
2023-03-26T16:05:47.970Z,10.30
2023-03-26T16:08:27.175Z,10.30
2023-03-26T16:10:57.310Z,10.30
2023-03-26T16:13:34.260Z,10.30
2023-03-26T16:16:22.446Z,10.40
2023-03-26T16:18:56.474Z,10.40
2023-03-26T16:21:55.661Z,10.40
2023-03-26T16:24:34.913Z,10.40
2023-03-26T16:27:26.188Z,10.40
2023-03-26T16:30:33.005Z,10.40
2023-03-26T16:33:13.943Z,10.30
2023-03-26T16:36:02.802Z,10.30
2023-03-26T16:38:50.444Z,10.20
2023-03-26T16:41:20.295Z,10.20
2023-03-26T16:44:14.598Z,10.20
2023-03-26T16:46:53.495Z,10.20
2023-03-26T16:49:38.500Z,10.20
2023-03-26T16:52:23.926Z,10.10
2023-03-26T16:54:58.212Z,10.10
2023-03-26T16:57:28.498Z,10.00
2023-03-26T17:00:23.444Z,9.90
2023-03-26T17:03:03.385Z,9.80
2023-03-26T17:05:38.009Z,9.70
2023-03-26T17:08:16.330Z,9.70
2023-03-26T17:10:56.863Z,9.60
2023-03-26T17:13:33.485Z,9.50
2023-03-26T17:16:11.749Z,9.50
2023-03-26T17:18:50.964Z,9.40
2023-03-26T17:21:24.661Z,9.40
2023-03-26T17:24:15.388Z,9.40
2023-03-26T17:26:59.863Z,9.30
2023-03-26T17:29:40.753Z,9.30
2023-03-26T17:32:12.372Z,9.30
2023-03-26T17:34:53.139Z,9.30
2023-03-26T17:37:52.964Z,9.20
2023-03-26T17:40:30.267Z,9.20
2023-03-26T17:43:04.805Z,9.20
2023-03-26T17:45:36.077Z,9.20
2023-03-26T17:48:11.122Z,9.20
2023-03-26T17:50:46.840Z,9.20
2023-03-26T17:53:20.758Z,9.10
2023-03-26T17:55:51.210Z,9.10
2023-03-26T17:58:26.927Z,9.10
2023-03-26T18:01:04.916Z,9.00
2023-03-26T18:03:37.158Z,9.00
2023-03-26T18:06:13.862Z,9.00
2023-03-26T18:09:06.955Z,9.00
2023-03-26T18:12:05.152Z,9.00
2023-03-26T18:15:15.648Z,8.90
2023-03-26T18:17:46.178Z,8.90
2023-03-26T18:20:23.306Z,8.90
2023-03-26T18:22:53.597Z,8.90
2023-03-26T18:25:27.973Z,8.90
2023-03-26T18:27:58.119Z,8.90
2023-03-26T18:30:26.993Z,8.80
2023-03-26T18:33:01.999Z,8.80
2023-03-26T18:35:40.720Z,8.90
2023-03-26T18:38:16.917Z,8.90
2023-03-26T18:40:46.373Z,8.80
2023-03-26T18:43:28.655Z,8.80
2023-03-26T18:46:02.673Z,8.80
2023-03-26T18:48:30.721Z,8.80
2023-03-26T18:51:05.077Z,8.80
2023-03-26T18:53:40.280Z,8.80
2023-03-26T18:56:20.813Z,8.80
2023-03-26T18:58:52.873Z,8.70
2023-03-26T19:01:25.985Z,8.70
2023-03-26T19:03:55.292Z,8.70
2023-03-26T19:06:24.290Z,8.70
2023-03-26T19:08:54.362Z,8.70
2023-03-26T19:11:22.310Z,8.70
2023-03-26T19:14:04.019Z,8.70
2023-03-26T19:16:36.762Z,8.70
2023-03-26T19:19:08.165Z,8.70
2023-03-26T19:21:37.454Z,8.70
2023-03-26T19:24:07.582Z,8.70
2023-03-26T19:26:36.495Z,8.70
2023-03-26T19:29:05.916Z,8.60
2023-03-26T19:31:36.517Z,8.60
2023-03-26T19:34:15.539Z,8.60
2023-03-26T19:36:57.966Z,8.50
2023-03-26T19:39:37.898Z,8.50
2023-03-26T19:42:07.017Z,8.50
2023-03-26T19:44:39.459Z,8.50
2023-03-26T19:47:09.250Z,8.50
2023-03-26T19:49:48.570Z,8.50
2023-03-26T19:52:21.138Z,8.60
2023-03-26T19:54:59.532Z,8.60
2023-03-26T19:57:31.869Z,8.60
2023-03-26T20:00:00.627Z,8.60
2023-03-26T20:02:29.035Z,8.60
2023-03-26T20:04:57.025Z,8.60
2023-03-26T20:07:35.716Z,8.60
2023-03-26T20:10:07.999Z,8.60
2023-03-26T20:12:35.815Z,8.60
2023-03-26T20:15:19.609Z,8.60
2023-03-26T20:17:50.052Z,8.60
2023-03-26T20:20:18.187Z,8.60
2023-03-26T20:22:46.813Z,8.60
2023-03-26T20:25:21.082Z,8.60
2023-03-26T20:27:49.061Z,8.60
2023-03-26T20:30:27.493Z,8.60
2023-03-26T20:33:11.792Z,8.60
2023-03-26T20:35:41.192Z,8.50
2023-03-26T20:38:09.738Z,8.50
2023-03-26T20:40:39.377Z,8.50
2023-03-26T20:43:12.726Z,8.50
2023-03-26T20:45:41.542Z,8.50
2023-03-26T20:48:10.937Z,8.50
2023-03-26T20:50:50.504Z,8.40
2023-03-26T20:53:20.229Z,8.40
2023-03-26T20:55:51.470Z,8.30
2023-03-26T20:58:31.356Z,8.30
2023-03-26T21:01:01.601Z,8.30
2023-03-26T21:03:29.573Z,8.20
2023-03-26T21:06:01.050Z,8.20
2023-03-26T21:08:34.935Z,8.20
2023-03-26T21:11:06.366Z,8.20
2023-03-26T21:13:39.914Z,8.30
2023-03-26T21:16:09.148Z,8.30
2023-03-26T21:18:37.831Z,8.20
2023-03-26T21:21:21.029Z,8.20
2023-03-26T21:23:59.196Z,8.10
2023-03-26T21:26:34.343Z,8.10
2023-03-26T21:29:09.789Z,8.00
2023-03-26T21:31:38.902Z,8.00
2023-03-26T21:34:08.289Z,7.90
2023-03-26T21:36:36.774Z,7.90
2023-03-26T21:39:06.320Z,7.90
2023-03-26T21:41:43.575Z,7.90
2023-03-26T21:44:11.748Z,7.90
2023-03-26T21:46:42.592Z,7.90
2023-03-26T21:49:11.190Z,7.90
2023-03-26T21:51:39.805Z,7.90
2023-03-26T21:54:18.477Z,7.90
2023-03-26T21:56:54.406Z,7.80
2023-03-26T21:59:33.566Z,7.70
2023-03-26T22:02:07.980Z,7.70
2023-03-26T22:04:40.142Z,7.70
2023-03-26T22:07:13.685Z,7.70
2023-03-26T22:09:43.659Z,7.70
2023-03-26T22:12:13.255Z,7.70
2023-03-26T22:14:41.288Z,7.70
2023-03-26T22:17:09.190Z,7.70
2023-03-26T22:19:37.116Z,7.70
2023-03-26T22:22:05.324Z,7.70
2023-03-26T22:24:34.289Z,7.70
2023-03-26T22:27:02.145Z,7.50
2023-03-26T22:29:31.569Z,7.50
2023-03-26T22:31:59.361Z,7.50
2023-03-26T22:34:27.110Z,7.50
2023-03-26T22:36:54.961Z,7.40
2023-03-26T22:39:22.699Z,7.40
2023-03-26T22:41:50.444Z,7.30
2023-03-26T22:44:20.256Z,7.20
2023-03-26T22:46:51.295Z,7.10
2023-03-26T22:49:19.481Z,7.00
2023-03-26T22:51:47.271Z,7.00
2023-03-26T22:54:15.089Z,7.00
2023-03-26T22:56:43.506Z,6.90
2023-03-26T22:59:11.365Z,6.80
2023-03-26T23:01:39.255Z,6.70
2023-03-26T23:04:08.482Z,6.60
2023-03-26T23:06:36.760Z,6.60
2023-03-26T23:09:07.026Z,6.60
2023-03-26T23:11:35.307Z,6.50
2023-03-26T23:14:03.324Z,6.50
2023-03-26T23:16:31.750Z,6.50
2023-03-26T23:18:59.589Z,6.40
2023-03-26T23:21:28.657Z,6.40
2023-03-26T23:23:56.463Z,6.30
2023-03-26T23:26:24.514Z,6.30
2023-03-26T23:28:52.764Z,6.30
2023-03-26T23:31:20.594Z,6.40
2023-03-26T23:33:50.119Z,6.30
2023-03-26T23:36:19.593Z,6.30
2023-03-26T23:38:49.734Z,6.40
2023-03-26T23:41:19.684Z,6.30
2023-03-26T23:43:54.171Z,6.30
2023-03-26T23:46:23.931Z,6.30
2023-03-26T23:48:52.220Z,6.30
2023-03-26T23:51:20.950Z,6.30
2023-03-26T23:53:50.415Z,6.30
2023-03-26T23:56:19.057Z,6.30
2023-03-26T23:58:47.686Z,6.30
